< < Back
Terminal Aerodrome Forecast


Current Version              Previous Versions:   1  2  3  4  5  6  7  8  9  

Terminal Aerodrome Forecast

080
FTUS44 KBMX 281140
TAFANB
TAF
KANB 281140Z 2812/2912 04003KT 6SM BR SCT013
      TEMPO 2812/2814 5SM BR BKN013
     FM281500 09008KT P6SM BKN035
     FM290100 07003KT P6SM SCT250
      TEMPO 2908/2912 4SM BR=



Latest METAR

597
SAUS70 KWBC 281300 RRI
MTRANB
METAR KANB 281253Z AUTO 07003KT 6SM HZ BKN015 22/19 A3011 RMK AO2 SLP189
T02220189


USA.gov is the U.S. government's official web portal to all federal, state and local government web resources and services.